Time;durP1;ratioP1;P1;durP2;ratioP2;P2;SDS_P1;SDS_P2;PMS_P1;PMS_P2;Temp;Humidity;BMP_temperature;BMP_pressure;BME280_temperature;BME280_humidity;BME280_pressure;Samples;Min_cycle;Max_cycle;Signal;HPM_P1;HPM_P2
2021/11/14 00:00:37;;;;;;;;;;;;;;;22.42;51.94;102637.28;2099515;28;1971;-55
2021/11/14 00:01:41;;;;;;;;;;;;;;;22.36;54.14;102640.97;2099637;28;917;-55
2021/11/14 00:02:41;;;;;;;;;;;;;;;22.37;51.88;102639.16;2099612;28;865;-55
2021/11/14 00:03:42;;;;;;;;;;;;;;;22.35;53.19;102644.59;2099721;28;988;-55
2021/11/14 00:04:46;;;;;;;;;;;;;;;22.34;51.90;102648.22;2099324;28;1326;-55
2021/11/14 00:05:46;;;;;;;;;;;;;;;22.33;52.39;102650.91;2099688;28;934;-55
2021/11/14 00:06:46;;;;;;;;;;;;;;;22.34;51.42;102650.00;2099527;28;906;-55
2021/11/14 00:07:47;;;;;;;;;;;;;;;22.34;51.39;102645.50;2099601;28;870;-55
2021/11/14 00:08:49;;;;;;;;;;;;;;;22.32;51.42;102651.81;2099569;28;810;-55
2021/11/14 00:09:50;;;;;;;;;;;;;;;22.29;52.94;102646.47;2099536;28;1333;-55
2021/11/14 00:10:52;;;;;;;;;;;;;;;22.30;51.37;102654.56;2099146;28;970;-55
2021/11/14 00:11:52;;;;;;;;;;;;;;;22.27;53.68;102651.88;2099593;28;922;-55
2021/11/14 00:12:53;;;;;;;;;;;;;;;22.32;50.69;102651.81;2099553;28;996;-55
2021/11/14 00:13:53;;;;;;;;;;;;;;;22.34;50.32;102644.59;2099636;28;973;-55
2021/11/14 00:14:53;;;;;;;;;;;;;;;22.29;54.03;102649.16;2099466;28;756;-55
2021/11/14 00:15:54;;;;;;;;;;;;;;;22.26;53.83;102652.81;2099302;28;827;-55
2021/11/14 00:16:54;;;;;;;;;;;;;;;22.21;52.50;102654.66;2099566;28;913;-55
2021/11/14 00:17:54;;;;;;;;;;;;;;;22.19;52.61;102651.09;2099572;28;799;-55
2021/11/14 00:18:55;;;;;;;;;;;;;;;22.15;51.10;102652.03;2099369;28;895;-55
2021/11/14 00:19:55;;;;;;;;;;;;;;;22.14;53.60;102648.41;2099634;28;797;-55
2021/11/14 00:20:55;;;;;;;;;;;;;;;22.16;51.48;102651.13;2099489;28;1959;-55
2021/11/14 00:21:56;;;;;;;;;;;;;;;22.19;50.96;102646.56;2099235;28;772;-55
2021/11/14 00:22:56;;;;;;;;;;;;;;;22.19;52.28;102657.34;2099516;28;882;-55
2021/11/14 00:23:56;;;;;;;;;;;;;;;22.19;53.52;102651.97;2099480;28;1052;-55
2021/11/14 00:24:57;;;;;;;;;;;;;;;22.15;53.27;102661.00;2099158;28;846;-55
2021/11/14 00:25:57;;;;;;;;;;;;;;;22.14;53.25;102658.34;2099579;28;818;-55
2021/11/14 00:26:57;;;;;;;;;;;;;;;22.18;51.61;102654.69;2100068;28;771;-55
2021/11/14 00:27:57;;;;;;;;;;;;;;;22.14;54.60;102658.34;2100730;28;839;-55
2021/11/14 00:28:57;;;;;;;;;;;;;;;22.12;53.37;102657.47;2101184;28;857;-55
2021/11/14 00:29:58;;;;;;;;;;;;;;;22.09;52.41;102658.38;2100436;28;887;-55
2021/11/14 00:30:58;;;;;;;;;;;;;;;22.11;51.07;102661.06;2100621;28;1060;-55
2021/11/14 00:31:58;;;;;;;;;;;;;;;22.15;50.77;102657.44;2101049;28;826;-55
2021/11/14 00:32:58;;;;;;;;;;;;;;;22.13;51.99;102653.84;2101026;28;984;-55
2021/11/14 00:33:58;;;;;;;;;;;;;;;22.04;53.05;102658.44;2101049;28;868;-55
2021/11/14 00:34:59;;;;;;;;;;;;;;;22.11;50.91;102661.94;2100994;28;897;-55
2021/11/14 00:35:59;;;;;;;;;;;;;;;22.12;50.92;102662.84;2101105;28;853;-55
2021/11/14 00:37:00;;;;;;;;;;;;;;;22.11;51.08;102663.78;2100953;28;814;-55
2021/11/14 00:38:00;;;;;;;;;;;;;;;22.09;50.59;102671.88;2098830;28;1247;-55
2021/11/14 00:39:00;;;;;;;;;;;;;;;22.08;52.26;102661.09;2092726;28;855;-55
2021/11/14 00:40:02;;;;;;;;;;;;;;;22.01;54.02;102661.16;2092649;28;855;-55
2021/11/14 00:41:02;;;;;;;;;;;;;;;21.99;53.41;102662.09;2092507;28;1893;-55
2021/11/14 00:42:03;;;;;;;;;;;;;;;21.99;53.14;102662.97;2092740;28;965;-55
2021/11/14 00:43:03;;;;;;;;;;;;;;;21.98;51.55;102666.59;2092640;28;866;-55
2021/11/14 00:44:04;;;;;;;;;;;;;;;22.05;50.84;102667.44;2092481;28;973;-55
2021/11/14 00:45:04;;;;;;;;;;;;;;;22.06;51.48;102666.53;2092682;28;761;-55
2021/11/14 00:46:06;;;;;;;;;;;;;;;22.02;52.19;102665.66;2092621;28;1037;-55
2021/11/14 00:47:07;;;;;;;;;;;;;;;22.02;50.64;102671.03;2092434;28;851;-55
2021/11/14 00:48:07;;;;;;;;;;;;;;;22.03;51.52;102667.44;2092704;28;969;-55
2021/11/14 00:49:07;;;;;;;;;;;;;;;22.02;52.21;102670.16;2092523;28;809;-55
2021/11/14 00:50:11;;;;;;;;;;;;;;;22.04;52.73;102673.75;2092552;28;840;-55
2021/11/14 00:51:13;;;;;;;;;;;;;;;22.01;51.90;102671.97;2092641;28;846;-55
2021/11/14 00:52:14;;;;;;;;;;;;;;;21.99;52.58;102675.59;2092520;28;1874;-55
2021/11/14 00:53:18;;;;;;;;;;;;;;;21.97;52.72;102672.91;2092533;28;870;-55
2021/11/14 00:54:18;;;;;;;;;;;;;;;22.05;52.57;102675.53;2092556;28;798;-55
2021/11/14 00:55:19;;;;;;;;;;;;;;;22.03;50.92;102674.66;2092363;28;990;-55
2021/11/14 00:56:19;;;;;;;;;;;;;;;22.00;52.00;102677.38;2092746;28;790;-55
2021/11/14 00:57:19;;;;;;;;;;;;;;;21.99;50.50;102671.09;2092485;28;1454;-55
2021/11/14 00:58:20;;;;;;;;;;;;;;;21.99;51.48;102670.19;2092209;28;926;-55
2021/11/14 00:59:20;;;;;;;;;;;;;;;22.01;51.70;102684.56;2092582;28;1099;-55
2021/11/14 01:00:22;;;;;;;;;;;;;;;21.92;52.26;102681.06;2092466;28;843;-55
2021/11/14 01:01:22;;;;;;;;;;;;;;;21.92;53.13;102680.16;2092372;28;1925;-55
2021/11/14 01:02:23;;;;;;;;;;;;;;;21.92;51.51;102680.16;2092546;28;911;-55
2021/11/14 01:03:23;;;;;;;;;;;;;;;21.95;51.39;102674.72;2092442;28;990;-55
2021/11/14 01:04:23;;;;;;;;;;;;;;;21.96;53.91;102687.31;2092589;28;1036;-55
2021/11/14 01:05:25;;;;;;;;;;;;;;;21.93;52.89;102676.53;2092567;28;1001;-55
2021/11/14 01:06:25;;;;;;;;;;;;;;;21.92;52.26;102681.06;2092489;28;981;-55
2021/11/14 01:07:25;;;;;;;;;;;;;;;21.99;51.02;102683.69;2092418;28;927;-55
2021/11/14 01:08:28;;;;;;;;;;;;;;;21.91;54.10;102683.75;2092243;28;1020;-55
2021/11/14 01:09:28;;;;;;;;;;;;;;;21.89;52.79;102677.47;2092402;28;991;-55
2021/11/14 01:10:30;;;;;;;;;;;;;;;21.88;51.55;102679.28;2092556;28;890;-55
2021/11/14 01:11:30;;;;;;;;;;;;;;;21.87;52.40;102688.31;2092421;28;1289;-55
2021/11/14 01:12:30;;;;;;;;;;;;;;;21.90;51.43;102681.97;2092477;28;847;-55
2021/11/14 01:13:32;;;;;;;;;;;;;;;21.90;52.00;102695.44;2092587;28;809;-55
2021/11/14 01:14:32;;;;;;;;;;;;;;;22.00;51.08;102689.06;2092418;28;839;-55
2021/11/14 01:15:33;;;;;;;;;;;;;;;21.96;51.27;102687.31;2092455;28;1020;-55
2021/11/14 01:16:33;;;;;;;;;;;;;;;21.95;52.16;102688.22;2092348;28;910;-55
2021/11/14 01:17:38;;;;;;;;;;;;;;;21.94;50.59;102689.13;2092478;28;982;-55
2021/11/14 01:18:38;;;;;;;;;;;;;;;21.94;52.09;102689.13;2092476;28;898;-55
2021/11/14 01:19:39;;;;;;;;;;;;;;;21.95;51.80;102690.03;2092259;28;978;-55
2021/11/14 01:20:40;;;;;;;;;;;;;;;21.90;52.80;102692.75;2092462;28;1898;-55
2021/11/14 01:21:45;;;;;;;;;;;;;;;21.87;51.56;102691.00;2092437;28;787;-55
2021/11/14 01:22:47;;;;;;;;;;;;;;;21.91;50.58;102699.94;2092288;28;824;-55
2021/11/14 01:23:49;;;;;;;;;;;;;;;21.88;52.28;102692.78;2092433;28;920;-56
2021/11/14 01:24:49;;;;;;;;;;;;;;;21.91;51.37;102697.25;2092300;28;860;-55
2021/11/14 01:25:50;;;;;;;;;;;;;;;21.94;51.88;102693.63;2092309;28;862;-55
2021/11/14 01:26:50;;;;;;;;;;;;;;;21.82;52.22;102698.25;2092374;28;1130;-55
2021/11/14 01:27:50;;;;;;;;;;;;;;;21.84;52.42;102693.72;2091975;28;929;-55
2021/11/14 01:28:51;;;;;;;;;;;;;;;21.88;51.73;102694.56;2092314;28;827;-55
2021/11/14 01:29:51;;;;;;;;;;;;;;;21.84;52.99;102700.91;2092370;28;1434;-55
2021/11/14 01:30:52;;;;;;;;;;;;;;;21.91;50.86;102694.53;2091755;28;760;-54
2021/11/14 01:31:53;;;;;;;;;;;;;;;21.90;52.24;102703.53;2092399;28;822;-55
2021/11/14 01:32:54;;;;;;;;;;;;;;;21.88;52.94;102699.97;2092240;28;1341;-55
2021/11/14 01:33:54;;;;;;;;;;;;;;;21.85;52.01;102698.22;2091316;28;863;-55
2021/11/14 01:34:54;;;;;;;;;;;;;;;21.83;52.76;102704.50;2091426;28;977;-55
2021/11/14 01:35:55;;;;;;;;;;;;;;;21.82;51.38;102697.31;2092322;28;985;-55
2021/11/14 01:36:55;;;;;;;;;;;;;;;21.83;52.54;102705.41;2092265;28;783;-55
2021/11/14 01:37:57;;;;;;;;;;;;;;;21.74;52.27;102708.19;2093345;28;1570;-55
2021/11/14 01:38:57;;;;;;;;;;;;;;;21.74;51.85;102709.09;2099767;28;806;-55
2021/11/14 01:39:57;;;;;;;;;;;;;;;21.83;51.33;102715.31;2100624;28;941;-55
2021/11/14 01:41:05;;;;;;;;;;;;;;;21.89;50.72;102713.47;2100434;28;1969;-55
2021/11/14 01:42:06;;;;;;;;;;;;;;;21.82;52.73;102717.13;2100098;28;1249;-54
2021/11/14 01:43:07;;;;;;;;;;;;;;;21.83;50.79;102710.81;2100425;28;1068;-56
2021/11/14 01:44:08;;;;;;;;;;;;;;;21.85;52.53;102716.19;2100503;28;878;-54
2021/11/14 01:45:09;;;;;;;;;;;;;;;21.81;52.76;102720.72;2100498;28;912;-54
2021/11/14 01:46:09;;;;;;;;;;;;;;;21.82;53.21;102716.22;2100354;28;933;-55
2021/11/14 01:47:09;;;;;;;;;;;;;;;21.81;51.22;102720.72;2100220;28;1050;-55
2021/11/14 01:48:09;;;;;;;;;;;;;;;21.84;52.47;102718.00;2100521;28;969;-55
2021/11/14 01:49:09;;;;;;;;;;;;;;;21.83;53.11;102718.00;2100424;28;1036;-55
2021/11/14 01:50:12;;;;;;;;;;;;;;;21.86;52.07;102712.56;2100129;28;846;-53
2021/11/14 01:51:12;;;;;;;;;;;;;;;21.90;51.42;102714.34;2100468;28;830;-53
2021/11/14 01:52:20;;;;;;;;;;;;;;;21.93;51.00;102717.00;2100492;28;1036;-53
2021/11/14 01:53:20;;;;;;;;;;;;;;;21.98;52.59;102725.06;2100436;28;783;-54
2021/11/14 01:54:22;;;;;;;;;;;;;;;21.95;53.27;102717.88;2100333;28;829;-54
2021/11/14 01:55:23;;;;;;;;;;;;;;;21.97;51.75;102718.78;2100474;28;882;-55
2021/11/14 01:56:24;;;;;;;;;;;;;;;21.91;52.78;102721.53;2100196;28;1482;-55
2021/11/14 01:57:25;;;;;;;;;;;;;;;21.88;51.85;102716.16;2096452;28;1053;-55
2021/11/14 01:58:26;;;;;;;;;;;;;;;21.89;53.82;102716.16;2100267;28;1004;-55
2021/11/14 01:59:26;;;;;;;;;;;;;;;21.88;51.83;102716.16;2100369;28;1056;-55
2021/11/14 02:00:38;;;;;;;;;;;;;;;21.85;51.36;102716.19;2100414;28;863;-55
2021/11/14 02:01:39;;;;;;;;;;;;;;;21.86;53.88;102718.88;2099292;28;1436;-55
2021/11/14 02:02:39;;;;;;;;;;;;;;;21.86;50.89;102720.66;2100371;28;818;-55
2021/11/14 02:03:41;;;;;;;;;;;;;;;21.86;52.05;102721.59;2100498;28;917;-55
2021/11/14 02:04:42;;;;;;;;;;;;;;;21.91;51.74;102724.22;2100160;28;779;-55
2021/11/14 02:05:42;;;;;;;;;;;;;;;21.95;52.73;102723.28;2100427;28;893;-55
2021/11/14 02:06:46;;;;;;;;;;;;;;;21.83;52.32;102718.00;2100298;28;855;-55
2021/11/14 02:07:46;;;;;;;;;;;;;;;21.76;51.85;102715.38;2100188;28;1155;-55
2021/11/14 02:08:47;;;;;;;;;;;;;;;21.78;52.63;102718.06;2100248;28;902;-55
2021/11/14 02:09:47;;;;;;;;;;;;;;;21.74;53.70;102719.00;2100186;28;854;-55
2021/11/14 02:10:48;;;;;;;;;;;;;;;21.77;51.26;102719.88;2100153;28;784;-55
2021/11/14 02:11:48;;;;;;;;;;;;;;;21.76;53.56;102720.78;2100280;28;913;-55
2021/11/14 02:12:48;;;;;;;;;;;;;;;21.74;52.88;102725.28;2100257;28;977;-55
2021/11/14 02:13:50;;;;;;;;;;;;;;;21.69;53.42;102724.44;2100340;28;986;-55
2021/11/14 02:14:51;;;;;;;;;;;;;;;21.75;52.53;102735.19;2100231;28;787;-55
2021/11/14 02:15:52;;;;;;;;;;;;;;;21.73;53.94;102733.38;2100312;28;988;-55
2021/11/14 02:16:52;;;;;;;;;;;;;;;21.75;50.40;102729.78;2100218;28;1303;-55
2021/11/14 02:17:52;;;;;;;;;;;;;;;21.75;52.73;102732.47;2099970;28;993;-55
2021/11/14 02:18:53;;;;;;;;;;;;;;;21.80;50.49;102732.44;2099953;28;945;-55
2021/11/14 02:19:53;;;;;;;;;;;;;;;21.78;52.87;102736.94;2100212;28;887;-55
2021/11/14 02:20:54;;;;;;;;;;;;;;;21.81;52.07;102734.22;2100114;28;1973;-55
2021/11/14 02:21:54;;;;;;;;;;;;;;;21.77;51.82;102736.06;2100086;28;1401;-55
2021/11/14 02:22:55;;;;;;;;;;;;;;;21.82;51.55;102743.19;2100266;28;913;-55
2021/11/14 02:23:55;;;;;;;;;;;;;;;21.81;52.30;102727.91;2100176;28;775;-55
2021/11/14 02:24:55;;;;;;;;;;;;;;;21.74;50.69;102735.16;2099961;28;847;-55
2021/11/14 02:25:56;;;;;;;;;;;;;;;21.71;50.85;102729.81;2100188;28;974;-55
2021/11/14 02:26:56;;;;;;;;;;;;;;;21.75;52.46;102728.88;2100061;28;763;-55
2021/11/14 02:27:56;;;;;;;;;;;;;;;21.77;52.49;102729.75;2099816;28;980;-55
2021/11/14 02:28:57;;;;;;;;;;;;;;;21.77;51.91;102730.66;2100129;28;1044;-55
2021/11/14 02:29:57;;;;;;;;;;;;;;;21.71;51.41;102729.81;2100164;28;913;-55
2021/11/14 02:30:58;;;;;;;;;;;;;;;21.69;52.74;102737.00;2100087;28;914;-55
2021/11/14 02:31:59;;;;;;;;;;;;;;;21.70;51.89;102728.00;2100071;28;858;-55
2021/11/14 02:33:00;;;;;;;;;;;;;;;21.69;52.71;102734.31;2099778;28;854;-55
2021/11/14 02:34:00;;;;;;;;;;;;;;;21.67;52.55;102731.66;2100060;28;838;-55
2021/11/14 02:35:00;;;;;;;;;;;;;;;21.69;52.31;102732.53;2100014;28;894;-55
2021/11/14 02:36:03;;;;;;;;;;;;;;;21.69;52.34;102732.53;2100159;28;886;-55
2021/11/14 02:37:04;;;;;;;;;;;;;;;21.68;53.29;102736.13;2100023;28;779;-55
2021/11/14 02:38:04;;;;;;;;;;;;;;;21.67;51.78;102747.81;2099984;28;1157;-55
2021/11/14 02:39:05;;;;;;;;;;;;;;;21.64;52.89;102734.38;2099968;28;973;-55
2021/11/14 02:40:07;;;;;;;;;;;;;;;21.73;53.04;102747.78;2100087;28;819;-55
2021/11/14 02:41:07;;;;;;;;;;;;;;;21.70;52.38;102752.28;2099840;28;1960;-55
2021/11/14 02:42:08;;;;;;;;;;;;;;;21.69;51.38;102753.19;2100070;28;981;-55
2021/11/14 02:43:08;;;;;;;;;;;;;;;21.75;50.88;102750.44;2099833;28;910;-55
2021/11/14 02:44:09;;;;;;;;;;;;;;;21.66;53.41;102751.44;2099803;28;942;-55
2021/11/14 02:45:10;;;;;;;;;;;;;;;21.71;51.33;102751.38;2100011;28;752;-55
2021/11/14 02:46:11;;;;;;;;;;;;;;;21.70;51.69;102758.59;2100068;28;984;-55
2021/11/14 02:47:11;;;;;;;;;;;;;;;21.68;51.46;102752.31;2100047;28;985;-55
2021/11/14 02:48:12;;;;;;;;;;;;;;;21.68;51.99;102755.00;2099400;28;799;-55
2021/11/14 02:49:12;;;;;;;;;;;;;;;21.66;52.42;102762.22;2099289;28;1017;-55
2021/11/14 02:50:13;;;;;;;;;;;;;;;21.64;52.43;102761.34;2099642;28;1044;-55
2021/11/14 02:51:16;;;;;;;;;;;;;;;21.67;52.07;102764.00;2099937;28;1039;-55
2021/11/14 02:52:16;;;;;;;;;;;;;;;21.67;51.78;102766.72;2099711;28;977;-55
2021/11/14 02:53:17;;;;;;;;;;;;;;;21.68;52.32;102759.50;2099994;28;854;-55
2021/11/14 02:54:17;;;;;;;;;;;;;;;21.67;52.58;102764.00;2099938;28;1051;-55
2021/11/14 02:55:19;;;;;;;;;;;;;;;21.67;52.66;102765.78;2099892;28;1028;-55
2021/11/14 02:56:19;;;;;;;;;;;;;;;21.64;53.88;102757.72;2099907;28;973;-55
2021/11/14 02:57:19;;;;;;;;;;;;;;;21.64;50.66;102761.34;2099588;28;1162;-55
2021/11/14 02:58:21;;;;;;;;;;;;;;;21.65;51.83;102765.81;2099897;28;1041;-55
2021/11/14 02:59:21;;;;;;;;;;;;;;;21.58;53.26;102767.63;2099898;28;783;-55
2021/11/14 03:00:23;;;;;;;;;;;;;;;21.52;53.63;102770.34;2099901;28;787;-55
2021/11/14 03:01:23;;;;;;;;;;;;;;;21.56;52.11;102763.16;2099914;28;1914;-55
2021/11/14 03:02:24;;;;;;;;;;;;;;;21.61;52.05;102773.00;2099860;28;862;-55
2021/11/14 03:03:24;;;;;;;;;;;;;;;21.62;50.92;102769.41;2099976;28;981;-56
2021/11/14 03:04:27;;;;;;;;;;;;;;;21.67;52.73;102765.78;2099821;28;822;-55
2021/11/14 03:05:27;;;;;;;;;;;;;;;21.65;51.08;102773.00;2099766;28;817;-55
2021/11/14 03:06:29;;;;;;;;;;;;;;;21.62;51.63;102771.25;2099845;28;854;-55
2021/11/14 03:07:29;;;;;;;;;;;;;;;21.65;50.39;102773.00;2099864;28;902;-55
2021/11/14 03:08:29;;;;;;;;;;;;;;;21.68;52.15;102771.19;2099809;28;981;-55
2021/11/14 03:09:32;;;;;;;;;;;;;;;21.60;52.33;102775.72;2099908;28;847;-55
2021/11/14 03:10:32;;;;;;;;;;;;;;;21.60;52.04;102770.31;2099453;28;1235;-55
2021/11/14 03:11:33;;;;;;;;;;;;;;;21.58;54.33;102774.81;2099915;28;779;-55
2021/11/14 03:12:33;;;;;;;;;;;;;;;21.58;52.24;102773.00;2099805;28;1005;-55
2021/11/14 03:13:34;;;;;;;;;;;;;;;21.64;50.04;102773.91;2099877;28;760;-55
2021/11/14 03:14:34;;;;;;;;;;;;;;;21.66;51.87;102775.72;2099861;28;835;-55
2021/11/14 03:15:36;;;;;;;;;;;;;;;21.62;52.07;102779.31;2099920;28;850;-55
2021/11/14 03:16:36;;;;;;;;;;;;;;;21.60;52.26;102771.19;2099797;28;826;-55
2021/11/14 03:17:36;;;;;;;;;;;;;;;21.60;53.73;102779.28;2099837;28;783;-55
2021/11/14 03:18:37;;;;;;;;;;;;;;;21.64;51.36;102771.22;2099768;28;977;-55
2021/11/14 03:19:37;;;;;;;;;;;;;;;21.65;51.47;102779.31;2099848;28;857;-55
2021/11/14 03:20:39;;;;;;;;;;;;;;;21.62;51.41;102776.63;2099727;28;1961;-55
2021/11/14 03:21:39;;;;;;;;;;;;;;;21.57;51.56;102776.63;2099795;28;996;-55
2021/11/14 03:22:39;;;;;;;;;;;;;;;21.60;53.46;102778.41;2099729;28;882;-55
2021/11/14 03:23:40;;;;;;;;;;;;;;;21.59;50.77;102777.50;2099724;28;859;-55
2021/11/14 03:24:40;;;;;;;;;;;;;;;21.67;52.59;102780.19;2099656;28;838;-55
2021/11/14 03:25:40;;;;;;;;;;;;;;;21.65;52.00;102778.41;2099856;28;857;-55
2021/11/14 03:26:41;;;;;;;;;;;;;;;21.60;51.51;102789.19;2099644;28;910;-55
2021/11/14 03:27:41;;;;;;;;;;;;;;;21.60;52.85;102784.69;2099804;28;901;-55
2021/11/14 03:28:42;;;;;;;;;;;;;;;21.64;50.85;102792.78;2099648;28;756;-55
2021/11/14 03:29:43;;;;;;;;;;;;;;;21.59;52.05;102784.72;2099847;28;977;-55
2021/11/14 03:30:43;;;;;;;;;;;;;;;21.68;51.19;102797.25;2099777;28;1107;-55
2021/11/14 03:31:46;;;;;;;;;;;;;;;21.60;51.36;102794.59;2099534;28;837;-55
2021/11/14 03:32:46;;;;;;;;;;;;;;;21.60;52.27;102806.25;2099745;28;857;-55
2021/11/14 03:33:46;;;;;;;;;;;;;;;21.56;52.39;102806.31;2099761;28;854;-56
2021/11/14 03:34:47;;;;;;;;;;;;;;;21.51;52.10;102800.91;2099560;28;914;-55
2021/11/14 03:35:55;;;;;;;;;;;;;;;21.51;52.53;102809.00;2099789;28;941;-55
2021/11/14 03:36:55;;;;;;;;;;;;;;;21.51;54.76;102803.63;2099642;28;794;-55
2021/11/14 03:37:56;;;;;;;;;;;;;;;21.53;52.04;102803.63;2098208;28;1200;-55
2021/11/14 03:38:57;;;;;;;;;;;;;;;21.63;51.04;102802.69;2091443;28;756;-55
2021/11/14 03:39:57;;;;;;;;;;;;;;;21.60;51.09;102798.16;2091078;28;992;-55
2021/11/14 03:40:58;;;;;;;;;;;;;;;21.66;51.60;102797.28;2091318;28;1894;-55
2021/11/14 03:41:58;;;;;;;;;;;;;;;21.58;50.32;102794.59;2090799;28;930;-55
2021/11/14 03:42:58;;;;;;;;;;;;;;;21.58;51.81;102799.97;2090972;28;988;-55
2021/11/14 03:43:59;;;;;;;;;;;;;;;21.59;53.31;102812.56;2091430;28;1053;-55
2021/11/14 03:44:59;;;;;;;;;;;;;;;21.54;53.56;102806.28;2091285;28;1048;-55
2021/11/14 03:45:59;;;;;;;;;;;;;;;21.44;53.05;102813.56;2091114;28;1180;-55
2021/11/14 03:46:59;;;;;;;;;;;;;;;21.47;53.48;102809.97;2091369;28;855;-55
2021/11/14 03:48:00;;;;;;;;;;;;;;;21.57;52.45;102816.19;2091382;28;811;-55
2021/11/14 03:49:00;;;;;;;;;;;;;;;21.57;53.18;102818.88;2091133;28;811;-55
2021/11/14 03:50:00;;;;;;;;;;;;;;;21.52;52.59;102815.31;2091455;28;1407;-55
2021/11/14 03:51:01;;;;;;;;;;;;;;;21.53;52.15;102820.69;2091417;28;841;-55
2021/11/14 03:52:05;;;;;;;;;;;;;;;21.53;51.44;102812.59;2091393;28;780;-56
2021/11/14 03:53:06;;;;;;;;;;;;;;;21.60;51.54;102825.13;2091465;28;897;-55
2021/11/14 03:54:06;;;;;;;;;;;;;;;21.57;51.77;102830.53;2091006;28;882;-55
2021/11/14 03:55:07;;;;;;;;;;;;;;;21.60;50.59;102824.25;2091362;28;823;-55
2021/11/14 03:56:07;;;;;;;;;;;;;;;21.53;52.00;102823.38;2091398;28;771;-55
2021/11/14 03:57:07;;;;;;;;;;;;;;;21.54;50.95;102821.59;2091212;28;1085;-55
2021/11/14 03:58:08;;;;;;;;;;;;;;;21.49;52.29;102827.00;2091406;28;836;-55
2021/11/14 03:59:08;;;;;;;;;;;;;;;21.49;52.80;102824.31;2091178;28;810;-55
2021/11/14 04:00:11;;;;;;;;;;;;;;;21.50;51.93;102828.78;2091286;28;776;-55
2021/11/14 04:01:13;;;;;;;;;;;;;;;21.51;52.75;102829.69;2091035;28;1922;-55
2021/11/14 04:02:13;;;;;;;;;;;;;;;21.47;51.49;102828.84;2092113;28;1323;-55
2021/11/14 04:03:14;;;;;;;;;;;;;;;21.44;53.81;102828.84;2093002;28;1033;-55
2021/11/14 04:04:14;;;;;;;;;;;;;;;21.44;51.66;102827.03;2093070;28;1063;-55
2021/11/14 04:05:15;;;;;;;;;;;;;;;21.48;51.75;102825.25;2092610;28;750;-55
2021/11/14 04:06:15;;;;;;;;;;;;;;;21.59;50.87;102831.44;2093012;28;906;-55
2021/11/14 04:07:15;;;;;;;;;;;;;;;21.65;51.33;102830.56;2092986;28;1045;-55
2021/11/14 04:08:17;;;;;;;;;;;;;;;21.54;52.63;102827.00;2092463;28;958;-55
2021/11/14 04:09:17;;;;;;;;;;;;;;;21.40;53.47;102833.34;2092426;28;853;-55
2021/11/14 04:10:17;;;;;;;;;;;;;;;21.44;53.45;102828.84;2092780;28;1009;-55
2021/11/14 04:11:18;;;;;;;;;;;;;;;21.46;52.54;102832.44;2092925;28;1142;-55
2021/11/14 04:12:18;;;;;;;;;;;;;;;21.52;52.90;102826.09;2092978;28;830;-55
2021/11/14 04:13:19;;;;;;;;;;;;;;;21.51;50.75;102825.19;2092921;28;847;-55
2021/11/14 04:14:19;;;;;;;;;;;;;;;21.50;51.40;102833.31;2092842;28;886;-55
2021/11/14 04:15:19;;;;;;;;;;;;;;;21.50;52.77;102833.31;2092839;28;1040;-55
2021/11/14 04:16:20;;;;;;;;;;;;;;;21.42;51.73;102834.25;2092544;28;877;-55
2021/11/14 04:17:20;;;;;;;;;;;;;;;21.44;52.52;102828.84;2092881;28;1094;-55
2021/11/14 04:18:20;;;;;;;;;;;;;;;21.44;52.97;102828.84;2092916;28;981;-56
2021/11/14 04:19:20;;;;;;;;;;;;;;;21.39;53.21;102831.56;2092903;28;756;-55
2021/11/14 04:20:21;;;;;;;;;;;;;;;21.40;52.75;102832.47;2092853;28;977;-55
2021/11/14 04:21:21;;;;;;;;;;;;;;;21.38;53.81;102827.06;2092591;28;1886;-56
2021/11/14 04:22:21;;;;;;;;;;;;;;;21.40;51.92;102827.06;2092673;28;993;-56
2021/11/14 04:23:21;;;;;;;;;;;;;;;21.43;51.97;102827.06;2093005;28;934;-55
2021/11/14 04:24:21;;;;;;;;;;;;;;;21.43;51.84;102838.72;2092860;28;764;-55
2021/11/14 04:25:23;;;;;;;;;;;;;;;21.39;52.36;102830.69;2092764;28;926;-55
2021/11/14 04:26:23;;;;;;;;;;;;;;;21.46;51.40;102827.94;2092849;28;779;-55
2021/11/14 04:27:23;;;;;;;;;;;;;;;21.45;52.76;102830.66;2092677;28;1017;-56
2021/11/14 04:28:24;;;;;;;;;;;;;;;21.45;52.31;102831.53;2092826;28;780;-55
2021/11/14 04:29:24;;;;;;;;;;;;;;;21.41;52.20;102827.06;2092755;28;780;-55
2021/11/14 04:30:25;;;;;;;;;;;;;;;21.37;52.33;102832.50;2092549;28;798;-55
2021/11/14 04:31:25;;;;;;;;;;;;;;;21.41;51.64;102835.16;2092900;28;970;-55
2021/11/14 04:32:25;;;;;;;;;;;;;;;21.44;52.33;102829.72;2092823;28;911;-55
2021/11/14 04:33:25;;;;;;;;;;;;;;;21.48;51.92;102836.03;2093805;28;1237;-55
2021/11/14 04:34:25;;;;;;;;;;;;;;;21.52;52.79;102831.50;2101028;28;1025;-56
2021/11/14 04:35:26;;;;;;;;;;;;;;;21.41;52.49;102829.75;2100565;28;903;-55
2021/11/14 04:36:26;;;;;;;;;;;;;;;21.37;52.26;102837.88;2100854;28;965;-55
2021/11/14 04:37:26;;;;;;;;;;;;;;;21.47;51.78;102835.13;2101027;28;842;-55
2021/11/14 04:38:26;;;;;;;;;;;;;;;21.46;50.90;102833.31;2095247;28;1003;-55
2021/11/14 04:39:26;;;;;;;;;;;;;;;21.46;52.78;102829.75;2092822;28;858;-55
2021/11/14 04:40:29;;;;;;;;;;;;;;;21.46;52.50;102836.00;2092761;28;772;-55
2021/11/14 04:41:29;;;;;;;;;;;;;;;21.44;51.83;102834.25;2092722;28;1890;-55
2021/11/14 04:42:29;;;;;;;;;;;;;;;21.42;52.77;102845.03;2092872;28;946;-55
2021/11/14 04:43:29;;;;;;;;;;;;;;;21.47;50.92;102842.31;2092764;28;910;-55
2021/11/14 04:44:29;;;;;;;;;;;;;;;21.46;52.15;102844.09;2092744;28;985;-55
2021/11/14 04:45:30;;;;;;;;;;;;;;;21.53;51.43;102844.06;2092464;28;781;-55
2021/11/14 04:46:30;;;;;;;;;;;;;;;21.51;52.94;102846.75;2092764;28;1338;-55
2021/11/14 04:47:30;;;;;;;;;;;;;;;21.43;52.46;102854.91;2092749;28;973;-55
2021/11/14 04:48:30;;;;;;;;;;;;;;;21.38;51.56;102862.13;2092666;28;850;-55
2021/11/14 04:49:31;;;;;;;;;;;;;;;21.45;52.54;102858.50;2092776;28;1387;-55
2021/11/14 04:50:31;;;;;;;;;;;;;;;21.45;52.00;102855.78;2092629;28;826;-55
2021/11/14 04:51:31;;;;;;;;;;;;;;;21.58;51.53;102853.91;2092718;28;986;-55
2021/11/14 04:52:31;;;;;;;;;;;;;;;21.49;51.80;102853.97;2092713;28;793;-55
2021/11/14 04:53:31;;;;;;;;;;;;;;;21.46;51.80;102859.41;2092560;28;989;-55
2021/11/14 04:54:31;;;;;;;;;;;;;;;21.43;51.19;102862.13;2092668;28;815;-55
2021/11/14 04:55:32;;;;;;;;;;;;;;;21.38;53.85;102866.63;2092655;28;839;-55
2021/11/14 04:56:32;;;;;;;;;;;;;;;21.46;53.01;102868.38;2092394;28;791;-55
2021/11/14 04:57:33;;;;;;;;;;;;;;;21.45;53.16;102871.97;2092503;28;1265;-55
2021/11/14 04:58:33;;;;;;;;;;;;;;;21.41;52.31;102872.88;2091826;28;1028;-55
2021/11/14 04:59:33;;;;;;;;;;;;;;;21.45;52.82;102876.47;2091748;28;985;-55
2021/11/14 05:00:54;;;;;;;;;;;;;;;21.46;51.85;102875.59;2092496;28;864;-55
2021/11/14 05:01:54;;;;;;;;;;;;;;;21.46;52.78;102878.28;2092130;28;1331;-55
2021/11/14 05:02:55;;;;;;;;;;;;;;;21.46;52.94;102879.16;2092570;28;886;-55
2021/11/14 05:03:55;;;;;;;;;;;;;;;21.45;51.58;102882.75;2092661;28;993;-55
2021/11/14 05:04:55;;;;;;;;;;;;;;;21.97;51.96;102883.38;2092216;28;814;-55
2021/11/14 05:05:58;;;;;;;;;;;;;;;22.56;50.37;102882.91;2092585;28;1017;-55
2021/11/14 05:06:58;;;;;;;;;;;;;;;22.86;50.47;102877.22;2092591;28;783;-55
2021/11/14 05:07:59;;;;;;;;;;;;;;;23.04;48.14;102876.09;2092424;28;755;-55
2021/11/14 05:09:00;;;;;;;;;;;;;;;23.15;47.92;102887.69;2092561;28;767;-55
2021/11/14 05:10:00;;;;;;;;;;;;;;;23.26;49.02;102882.16;2092550;28;795;-55
2021/11/14 05:11:00;;;;;;;;;;;;;;;23.29;48.88;102882.13;2092409;28;1310;-55
2021/11/14 05:12:00;;;;;;;;;;;;;;;23.41;47.72;102893.69;2092568;28;755;-55
2021/11/14 05:13:01;;;;;;;;;;;;;;;23.50;47.61;102896.28;2092064;28;1466;-55
2021/11/14 05:14:01;;;;;;;;;;;;;;;23.60;47.33;102899.75;2092422;28;1183;-55
2021/11/14 05:15:02;;;;;;;;;;;;;;;23.58;47.74;102896.16;2092535;28;835;-56
2021/11/14 05:16:03;;;;;;;;;;;;;;;23.68;47.76;102897.81;2092522;28;759;-55
2021/11/14 05:17:03;;;;;;;;;;;;;;;23.74;47.67;102897.75;2092521;28;830;-55
2021/11/14 05:18:03;;;;;;;;;;;;;;;23.76;47.73;102900.44;2092312;28;799;-55
2021/11/14 05:19:04;;;;;;;;;;;;;;;23.82;47.69;102903.94;2092284;28;789;-55
2021/11/14 05:20:04;;;;;;;;;;;;;;;23.84;46.26;102902.09;2092559;28;909;-55